Weather at Goacher Airport [CLOSED]

Public forecast

Using degrees Fahrenheit for public forecast. Weather courtesy of forecast.io.

Closest aviation weather report (METAR) to Goacher Airport

Closest report is Little Rock Air Force Base, 11.0 nm (20.3 km) WNW. Retrieved 2021/06/23 01:56 UTC (36 minutes ago):

KLRF 230156Z AUTO 00000KT 10SM CLR 19/13 A3000 RMK AO2 SLP160 T01940126

Closest aviation forecast (TAF) to Goacher Airport

Closest forecast is Little Rock Air Force Base, 11.0 nm (20.3 km) WNW. Retrieved 2021-06-23 23:57 UTC (0 seconds ago):

TAF TAF KLRF 222300Z 2223/2405 08006KT 9999 FEW140 QNH2998INS BECMG 2315/2316 16006KT 9999 SCT120 QNH2994INS BECMG 2402/2403 14006KT 9999 FEW050 SCT120 QNH2999INS TX30/2320Z TN15/2310Z